TimeEST,TemperatureF,Dew PointF,Humidity,Sea Level PressureIn,VisibilityMPH,Wind Direction,Wind SpeedMPH,Gust SpeedMPH,PrecipitationIn,Events,Conditions,WindDirDegrees,DateUTC
12:54 AM,32.0,25.0,75,30.30,10.0,South,3.5,-,N/A,,Overcast,190,2012-11-29 05:54:00
1:54 AM,34.0,21.9,61,30.30,10.0,SSW,3.5,-,N/A,,Overcast,200,2012-11-29 06:54:00
2:54 AM,32.0,25.0,75,30.30,10.0,Calm,Calm,-,N/A,,Mostly Cloudy,0,2012-11-29 07:54:00
3:54 AM,28.9,25.0,85,30.30,10.0,South,5.8,-,N/A,,Mostly Cloudy,170,2012-11-29 08:54:00
4:54 AM,28.0,24.1,85,30.31,10.0,Calm,Calm,-,N/A,,Partly Cloudy,0,2012-11-29 09:54:00
5:54 AM,28.9,25.0,85,30.31,10.0,Variable,4.6,-,N/A,,Clear,0,2012-11-29 10:54:00
6:54 AM,32.0,21.9,66,30.31,10.0,ESE,5.8,-,N/A,,Clear,120,2012-11-29 11:54:00
7:54 AM,30.9,24.1,76,30.32,10.0,ESE,6.9,-,N/A,,Clear,120,2012-11-29 12:54:00
8:54 AM,36.0,25.0,64,30.32,10.0,Variable,4.6,-,N/A,,Clear,0,2012-11-29 13:54:00
9:54 AM,39.9,27.0,60,30.32,10.0,Variable,4.6,-,N/A,,Clear,0,2012-11-29 14:54:00
11:54 AM,45.0,26.1,48,30.28,10.0,Variable,5.8,16.1,N/A,,Partly Cloudy,0,2012-11-29 16:54:00
12:54 PM,46.0,23.0,40,30.25,10.0,West,8.1,19.6,N/A,,Clear,260,2012-11-29 17:54:00
1:54 PM,46.0,19.9,35,30.25,10.0,West,11.5,20.7,N/A,,Clear,270,2012-11-29 18:54:00
2:54 PM,46.0,21.9,39,30.24,10.0,Variable,3.5,-,N/A,,Scattered Clouds,0,2012-11-29 19:54:00
3:54 PM,45.0,19.9,37,30.25,10.0,Variable,4.6,-,N/A,,Mostly Cloudy,0,2012-11-29 20:54:00
4:54 PM,42.1,19.9,41,30.25,10.0,Calm,Calm,-,N/A,,Partly Cloudy,0,2012-11-29 21:54:00
5:54 PM,37.0,21.0,52,30.27,10.0,Calm,Calm,-,N/A,,Clear,0,2012-11-29 22:54:00
6:54 PM,33.1,23.0,66,30.28,10.0,SSE,4.6,-,N/A,,Clear,160,2012-11-29 23:54:00
7:54 PM,30.9,23.0,72,30.30,10.0,Calm,Calm,-,N/A,,Clear,0,2012-11-30 00:54:00
8:54 PM,28.0,21.9,78,30.31,10.0,Calm,Calm,-,N/A,,Clear,0,2012-11-30 01:54:00
9:54 PM,30.0,21.9,72,30.32,10.0,SSE,5.8,-,N/A,,Overcast,160,2012-11-30 02:54:00
10:54 PM,32.0,23.0,69,30.32,10.0,Calm,Calm,-,N/A,,Overcast,0,2012-11-30 03:54:00
11:54 PM,30.9,23.0,72,30.31,10.0,Calm,Calm,-,N/A,,Overcast,0,2012-11-30 04:54:00